Time;durP1;ratioP1;P1;durP2;ratioP2;P2;SDS_P1;SDS_P2;PMS_P1;PMS_P2;Temp;Humidity;BMP_temperature;BMP_pressure;BME280_temperature;BME280_humidity;BME280_pressure;Samples;Min_cycle;Max_cycle;Signal;HPM_P1;HPM_P2
2021/12/24 00:04:50;;;;;;;64.78;30.23;;;;;;;3.61;100.00;95295.34;20546896;28;20194;-83
2021/12/24 00:14:54;;;;;;;63.38;30.85;;;;;;;3.63;100.00;95277.53;20558649;28;20371;-84
2021/12/24 00:35:17;;;;;;;66.65;29.58;;;;;;;3.71;100.00;95259.72;20572612;28;20059;-85
2021/12/24 00:45:21;;;;;;;91.40;33.28;;;;;;;3.82;100.00;95258.63;20570843;28;21063;-85
2021/12/24 00:55:25;;;;;;;84.32;32.90;;;;;;;3.85;100.00;95250.25;20562546;28;20080;-84
2021/12/24 01:05:27;;;;;;;73.95;30.42;;;;;;;3.86;100.00;95251.81;20565650;28;20093;-82
2021/12/24 01:15:29;;;;;;;84.82;30.80;;;;;;;3.92;100.00;95244.72;20563808;28;20566;-84
2021/12/24 01:25:40;;;;;;;67.50;26.77;;;;;;;3.92;100.00;95242.09;20562841;28;20072;-85
2021/12/24 01:46:03;;;;;;;57.03;23.88;;;;;;;3.95;100.00;95233.72;20506581;28;20055;-85
2021/12/24 01:56:04;;;;;;;64.22;26.77;;;;;;;4.00;100.00;95217.94;20542188;28;20034;-85
2021/12/24 02:06:04;;;;;;;70.10;26.80;;;;;;;3.94;100.00;95219.03;20550225;28;20100;-84
2021/12/24 02:16:19;;;;;;;56.70;23.02;;;;;;;4.02;100.00;95216.66;20548205;28;20165;-84
2021/12/24 02:36:39;;;;;;;50.85;19.95;;;;;;;4.10;100.00;95204.78;20554596;28;20055;-84
2021/12/24 02:47:04;;;;;;;36.55;18.35;;;;;;;4.19;100.00;95197.94;20521955;28;20445;-84
2021/12/24 02:57:08;;;;;;;42.45;17.77;;;;;;;4.36;100.00;95188.94;20543160;28;20073;-85
2021/12/24 03:07:08;;;;;;;44.78;18.35;;;;;;;4.46;100.00;95188.09;20538171;28;20055;-85
2021/12/24 03:17:12;;;;;;;33.60;15.70;;;;;;;4.49;100.00;95183.06;20547230;28;20426;-84
2021/12/24 03:27:15;;;;;;;40.85;18.00;;;;;;;4.52;100.00;95174.66;20535217;28;20080;-85
2021/12/24 03:37:15;;;;;;;38.30;16.50;;;;;;;4.52;100.00;95172.03;20536591;28;20062;-82
2021/12/24 03:47:19;;;;;;;42.00;16.25;;;;;;;4.52;100.00;95171.25;20541864;28;20049;-85
2021/12/24 03:57:19;;;;;;;39.17;16.00;;;;;;;4.49;100.00;95167.31;20543690;28;20395;-86
2021/12/24 04:07:20;;;;;;;35.45;14.35;;;;;;;4.53;100.00;95141.34;20541558;28;20058;-83
2021/12/24 04:17:21;;;;;;;32.28;12.88;;;;;;;4.59;100.00;95137.63;20543867;28;20065;-83
2021/12/24 04:27:27;;;;;;;33.75;12.77;;;;;;;4.58;100.00;95120.34;20539681;28;20031;-83
2021/12/24 04:37:53;;;;;;;36.23;12.33;;;;;;;4.66;100.00;95127.59;20545439;28;20046;-84
2021/12/24 05:08:40;;;;;;;22.42;9.43;;;;;;;4.62;100.00;95131.84;20543277;28;20055;-84
2021/12/24 05:29:04;;;;;;;26.63;9.52;;;;;;;4.57;100.00;95142.34;20501667;28;20065;-84
2021/12/24 05:39:05;;;;;;;31.60;10.35;;;;;;;4.55;100.00;95132.13;20612807;28;20191;-84
2021/12/24 05:49:05;;;;;;;30.42;10.77;;;;;;;4.45;100.00;95147.16;20568514;28;20082;-84
2021/12/24 05:59:06;;;;;;;29.55;11.63;;;;;;;4.44;100.00;95170.00;20573891;28;20074;-85
2021/12/24 06:09:06;;;;;;;33.95;12.57;;;;;;;4.40;100.00;95150.63;20587648;28;21125;-84
2021/12/24 06:19:07;;;;;;;30.73;12.50;;;;;;;4.32;100.00;95166.94;20544261;28;20065;-84
2021/12/24 06:29:07;;;;;;;28.65;10.50;;;;;;;4.33;100.00;95165.88;20595937;28;20126;-85
2021/12/24 06:39:08;;;;;;;27.17;10.10;;;;;;;4.36;100.00;95158.25;20608002;28;20057;-84
2021/12/24 06:49:10;;;;;;;26.48;10.02;;;;;;;4.37;100.00;95166.88;20608269;28;20055;-84
2021/12/24 06:59:10;;;;;;;31.42;9.00;;;;;;;4.38;100.00;95161.38;20588421;28;20497;-84
2021/12/24 07:09:12;;;;;;;33.15;10.38;;;;;;;4.28;100.00;95161.44;20590953;28;20136;-84
2021/12/24 07:19:13;;;;;;;30.70;10.05;;;;;;;4.24;100.00;95168.28;20609553;28;20409;-84
2021/12/24 07:29:13;;;;;;;26.45;9.38;;;;;;;4.15;100.00;95168.09;20597328;28;20144;-84
2021/12/24 07:39:14;;;;;;;22.65;9.45;;;;;;;4.28;100.00;95158.06;20624559;28;20574;-83
2021/12/24 07:59:25;;;;;;;37.38;10.10;;;;;;;4.31;100.00;95154.88;20627934;28;20042;-84
2021/12/24 08:09:26;;;;;;;23.20;8.20;;;;;;;4.36;100.00;95173.19;20608638;28;20042;-84
2021/12/24 08:19:26;;;;;;;32.88;11.02;;;;;;;4.25;100.00;95153.34;20632994;28;20089;-85
2021/12/24 08:29:27;;;;;;;32.92;11.23;;;;;;;4.27;100.00;95143.38;20572885;28;20074;-83
2021/12/24 08:49:53;;;;;;;29.33;7.55;;;;;;;4.39;100.00;95128.06;20553691;28;20057;-83
2021/12/24 08:59:53;;;;;;;37.35;10.27;;;;;;;4.50;100.00;95118.31;20527768;28;21104;-84
2021/12/24 09:09:54;;;;;;;26.58;8.20;;;;;;;4.56;100.00;95114.56;20524594;28;22245;-85
2021/12/24 09:19:55;;;;;;;25.75;7.78;;;;;;;4.69;100.00;95129.66;20506410;28;21250;-83
2021/12/24 09:29:56;;;;;;;23.80;8.10;;;;;;;4.69;100.00;95137.53;20557490;28;20095;-83
2021/12/24 09:39:57;;;;;;;25.73;8.20;;;;;;;4.72;100.00;95138.81;20544061;28;20446;-84
2021/12/24 09:49:58;;;;;;;29.45;9.02;;;;;;;4.75;100.00;95140.91;20591841;28;20490;-83
2021/12/24 09:59:58;;;;;;;35.15;10.30;;;;;;;4.91;100.00;95139.69;20552904;28;20628;-83
2021/12/24 10:20:31;;;;;;;30.42;8.73;;;;;;;5.15;100.00;95125.78;20572918;28;20047;-83
2021/12/24 10:30:32;;;;;;;26.83;8.02;;;;;;;5.14;100.00;95103.25;20593910;28;20054;-83
2021/12/24 10:51:08;;;;;;;19.00;3.85;;;;;;;5.31;100.00;95076.53;20598519;28;20677;-83
2021/12/24 11:01:15;;;;;;;18.50;4.00;;;;;;;5.61;100.00;95067.47;20578986;28;20141;-83
2021/12/24 11:11:17;;;;;;;;;;;;;;;5.51;100.00;95059.72;20530559;28;20038;-83
2021/12/24 11:21:20;;;;;;;20.90;7.40;;;;;;;5.34;100.00;95052.34;20567102;28;20356;-83
2021/12/24 11:31:23;;;;;;;21.13;6.68;;;;;;;5.47;100.00;95035.09;20605813;28;20034;-83
2021/12/24 11:41:28;;;;;;;22.63;8.45;;;;;;;5.55;100.00;95042.34;20571348;28;20727;-83
2021/12/24 11:51:33;;;;;;;21.63;8.50;;;;;;;5.46;100.00;95041.44;20502148;28;20169;-83
2021/12/24 12:01:38;;;;;;;17.35;8.02;;;;;;;5.38;100.00;95040.22;20529954;28;20062;-82
2021/12/24 12:11:41;;;;;;;14.60;6.97;;;;;;;5.53;100.00;95031.34;20565425;28;20183;-82
2021/12/24 12:32:16;;;;;;;13.65;6.20;;;;;;;5.96;100.00;94987.34;20522223;28;20074;-84
2021/12/24 12:42:18;;;;;;;13.63;6.57;;;;;;;5.98;100.00;94985.22;20537261;28;20061;-83
2021/12/24 12:52:32;;;;;;;16.25;6.60;;;;;;;5.61;100.00;94986.03;20506496;28;20167;-83
2021/12/24 13:02:57;;;;;;;14.07;6.95;;;;;;;5.62;100.00;94991.03;20552138;28;20056;-83
2021/12/24 13:13:03;;;;;;;11.90;6.45;;;;;;;5.64;100.00;94980.25;20540460;28;20100;-83
2021/12/24 13:23:21;;;;;;;12.43;6.53;;;;;;;5.56;100.00;94973.00;20529265;28;20098;-83
2021/12/24 13:33:21;;;;;;;11.43;5.93;;;;;;;5.55;100.00;94963.53;20509786;28;20043;-85
2021/12/24 13:43:23;;;;;;;11.50;6.40;;;;;;;5.63;100.00;94958.41;20519887;28;20129;-83
2021/12/24 14:03:50;;;;;;;12.98;7.43;;;;;;;5.42;100.00;94978.19;20458140;28;20189;-83
2021/12/24 14:13:58;;;;;;;14.75;7.10;;;;;;;5.39;100.00;94976.13;20551313;28;20050;-84
2021/12/24 14:24:14;;;;;;;15.32;7.38;;;;;;;5.29;100.00;94971.81;20560891;28;21818;-84
2021/12/24 14:34:38;;;;;;;19.90;8.57;;;;;;;5.16;100.00;94965.41;20576072;28;20057;-84
2021/12/24 14:44:38;;;;;;;16.63;8.48;;;;;;;5.04;100.00;94965.81;20547834;28;20045;-83
2021/12/24 14:55:13;;;;;;;16.45;8.90;;;;;;;5.06;100.00;94981.28;20508056;28;20054;-84
2021/12/24 15:05:29;;;;;;;16.40;9.10;;;;;;;4.96;100.00;94989.28;20529106;28;20058;-83
2021/12/24 15:15:30;;;;;;;14.45;8.23;;;;;;;4.88;100.00;94984.66;20536741;28;20061;-84
2021/12/24 15:25:32;;;;;;;17.40;8.90;;;;;;;4.83;100.00;94990.75;20495885;28;20100;-82
2021/12/24 15:35:33;;;;;;;14.77;8.57;;;;;;;4.76;100.00;94993.72;20529270;28;20047;-81
2021/12/24 15:45:35;;;;;;;15.27;8.63;;;;;;;4.77;100.00;95011.00;20554593;28;20061;-82
2021/12/24 15:55:36;;;;;;;14.95;8.68;;;;;;;4.66;100.00;95001.72;20527309;28;20169;-83
2021/12/24 16:05:37;;;;;;;15.48;9.00;;;;;;;4.58;100.00;94995.22;20558709;28;20050;-83
2021/12/24 16:15:44;;;;;;;14.95;8.70;;;;;;;4.57;100.00;95001.50;20506351;28;20157;-84
2021/12/24 16:25:45;;;;;;;14.75;8.75;;;;;;;4.56;100.00;94984.22;20542096;28;20122;-84
2021/12/24 16:35:45;;;;;;;14.15;7.55;;;;;;;4.54;100.00;94999.47;20553724;28;20569;-82
2021/12/24 16:45:47;;;;;;;14.88;8.25;;;;;;;4.47;100.00;94996.38;20546628;28;20151;-84
2021/12/24 16:55:49;;;;;;;13.65;7.55;;;;;;;4.46;100.00;94996.69;20559806;28;20562;-83
2021/12/24 17:05:49;;;;;;;13.40;7.78;;;;;;;4.46;100.00;94986.97;20549833;28;20126;-83
2021/12/24 17:15:49;;;;;;;16.85;8.95;;;;;;;4.50;100.00;94976.72;20555706;28;20113;-82
2021/12/24 17:25:51;;;;;;;17.73;9.55;;;;;;;4.50;100.00;94974.09;20565788;28;20392;-83
2021/12/24 17:35:52;;;;;;;13.82;8.40;;;;;;;4.46;100.00;94973.06;20560293;28;20146;-83
2021/12/24 17:45:53;;;;;;;15.27;9.65;;;;;;;4.40;100.00;94972.34;20552029;28;20051;-83
2021/12/24 17:55:53;;;;;;;16.35;8.68;;;;;;;4.38;100.00;94972.63;20556872;28;20044;-83
2021/12/24 18:05:55;;;;;;;14.43;8.18;;;;;;;4.41;100.00;94963.41;20568305;28;20055;-83
2021/12/24 18:15:56;;;;;;;14.93;8.50;;;;;;;4.39;100.00;94960.28;20585140;28;20061;-83
2021/12/24 18:25:57;;;;;;;16.00;8.63;;;;;;;4.31;100.00;94964.31;20571019;28;20057;-83
2021/12/24 18:35:57;;;;;;;17.95;10.55;;;;;;;4.31;100.00;94961.69;20571434;28;20042;-84
2021/12/24 18:45:59;;;;;;;18.65;10.95;;;;;;;4.26;100.00;94969.59;20553181;28;20120;-83
2021/12/24 18:55:59;;;;;;;17.05;10.35;;;;;;;4.30;100.00;94967.19;20559264;28;20046;-82
2021/12/24 19:06:01;;;;;;;22.92;11.43;;;;;;;4.26;100.00;94964.34;20568387;28;20057;-83
2021/12/24 19:16:02;;;;;;;21.70;11.93;;;;;;;4.26;100.00;94974.84;20542747;28;20049;-82
2021/12/24 19:26:02;;;;;;;23.55;12.25;;;;;;;4.29;100.00;94970.88;20564144;28;20058;-83
2021/12/24 19:36:03;;;;;;;34.20;14.30;;;;;;;4.26;100.00;94964.34;20582509;28;20294;-83
2021/12/24 19:46:04;;;;;;;54.45;15.05;;;;;;;4.29;100.00;94957.75;20577798;28;20047;-83
2021/12/24 19:56:04;;;;;;;119.80;17.90;;;;;;;4.20;100.00;94949.72;20569371;28;20043;-84
2021/12/24 20:06:05;;;;;;;32.85;12.65;;;;;;;4.16;100.00;94962.59;20569126;28;20057;-83
2021/12/24 20:16:06;;;;;;;28.58;11.63;;;;;;;4.25;100.00;94956.75;20561863;28;20047;-84
2021/12/24 20:26:07;;;;;;;23.90;11.93;;;;;;;4.35;100.00;94954.03;20568317;28;20039;-84
2021/12/24 20:36:09;;;;;;;20.42;10.20;;;;;;;4.36;100.00;94953.75;20564862;28;20049;-84
2021/12/24 20:46:09;;;;;;;24.65;11.63;;;;;;;4.35;100.00;94956.66;20584491;28;20061;-84
2021/12/24 20:56:12;;;;;;;26.13;11.18;;;;;;;4.39;100.00;94944.53;20583014;28;20469;-84
2021/12/24 21:06:12;;;;;;;25.80;11.48;;;;;;;4.29;100.00;94932.34;20571956;28;20124;-84
2021/12/24 21:16:13;;;;;;;20.30;10.65;;;;;;;4.31;100.00;94917.13;20579082;28;20494;-84
2021/12/24 21:26:13;;;;;;;22.65;11.25;;;;;;;4.24;100.00;94906.19;20577076;28;20050;-84
2021/12/24 21:36:14;;;;;;;23.10;10.60;;;;;;;4.15;100.00;94908.63;20587477;28;20050;-83
2021/12/24 21:46:14;;;;;;;22.05;11.20;;;;;;;4.12;100.00;94916.28;20573759;28;20054;-84
2021/12/24 21:56:15;;;;;;;22.30;10.25;;;;;;;4.01;100.00;94905.91;20562909;28;20046;-84
2021/12/24 22:16:18;;;;;;;26.40;12.55;;;;;;;3.96;100.00;94884.19;20531570;28;20054;-84
2021/12/24 22:26:19;;;;;;;27.17;12.77;;;;;;;3.90;100.00;94891.31;20529840;28;20621;-84
2021/12/24 22:36:19;;;;;;;29.10;13.20;;;;;;;4.09;100.00;94885.41;20536478;28;20105;-84
2021/12/24 22:46:19;;;;;;;29.05;12.23;;;;;;;3.97;100.00;94915.38;20550919;28;20097;-85
2021/12/24 22:56:21;;;;;;;25.40;12.60;;;;;;;3.90;100.00;94928.00;20523174;28;20057;-84
2021/12/24 23:06:21;;;;;;;26.77;12.07;;;;;;;3.88;100.00;94901.28;20506407;28;20046;-85
2021/12/24 23:16:25;;;;;;;26.42;12.20;;;;;;;3.92;100.00;94904.16;20544911;28;20047;-84
2021/12/24 23:26:25;;;;;;;28.98;14.13;;;;;;;3.93;100.00;94893.41;20557590;28;20047;-83
2021/12/24 23:36:26;;;;;;;23.05;12.10;;;;;;;3.90;100.00;94893.16;20548292;28;20046;-84
2021/12/24 23:56:33;;;;;;;27.53;13.53;;;;;;;3.88;100.00;94900.53;20526349;28;20121;-84
